Time;durP1;ratioP1;P1;durP2;ratioP2;P2;SDS_P1;SDS_P2;PMS_P1;PMS_P2;Temp;Humidity;BMP_temperature;BMP_pressure;BME280_temperature;BME280_humidity;BME280_pressure;Samples;Min_cycle;Max_cycle;Signal;HPM_P1;HPM_P2
2023/11/12 00:01:01;;;;;;;9.60;4.70;;;;;;;13.32;100.00;99023.67;105984;1251;72092;-78
2023/11/12 00:03:29;;;;;;;8.90;4.60;;;;;;;13.31;100.00;99026.17;107162;1253;62654;-75
2023/11/12 00:05:56;;;;;;;11.70;4.30;;;;;;;13.30;100.00;99020.67;106510;1255;59621;-75
2023/11/12 00:08:24;;;;;;;10.20;4.20;;;;;;;13.29;100.00;99023.23;106045;1257;70700;-76
2023/11/12 00:10:53;;;;;;;8.40;4.80;;;;;;;13.28;100.00;99023.35;105938;1256;62348;-76
2023/11/12 00:13:21;;;;;;;9.20;3.90;;;;;;;13.27;100.00;99015.16;106209;1250;72927;-77
2023/11/12 00:15:49;;;;;;;6.10;3.70;;;;;;;13.24;100.00;99015.77;106684;1254;61936;-76
2023/11/12 00:18:17;;;;;;;6.70;4.00;;;;;;;13.21;100.00;99021.48;107049;1251;59826;-75
2023/11/12 00:20:44;;;;;;;5.80;3.50;;;;;;;13.19;100.00;99024.88;106586;1251;71443;-76
2023/11/12 00:23:12;;;;;;;8.40;4.10;;;;;;;13.17;100.00;99027.87;105953;1251;63525;-75
2023/11/12 00:25:40;;;;;;;7.10;3.70;;;;;;;13.17;100.00;99032.41;105957;1251;71034;-74
2023/11/12 00:28:08;;;;;;;9.30;4.80;;;;;;;13.17;100.00;99026.68;105869;1256;62049;-75
2023/11/12 00:30:35;;;;;;;10.10;3.90;;;;;;;13.14;100.00;99024.25;105800;1252;59580;-76
2023/11/12 00:33:03;;;;;;;8.50;4.90;;;;;;;13.13;100.00;99028.13;106036;1251;71742;-77
2023/11/12 00:35:30;;;;;;;8.10;4.00;;;;;;;13.10;100.00;99019.95;105999;1251;62788;-75
2023/11/12 00:37:59;;;;;;;5.90;3.90;;;;;;;13.07;100.00;99021.24;105979;1256;70576;-76
2023/11/12 00:40:27;;;;;;;8.20;3.30;;;;;;;13.04;100.00;99021.91;105904;1256;60601;-75
2023/11/12 00:42:56;;;;;;;5.40;4.10;;;;;;;13.01;100.00;99023.25;105757;1251;59902;-78
2023/11/12 00:45:29;;;;;;;5.30;3.80;;;;;;;12.97;100.00;99025.36;105817;1254;71648;-75
2023/11/12 00:48:38;;;;;;;6.00;3.90;;;;;;;12.96;100.00;99022.73;102373;1292;614759;-76
2023/11/12 00:51:05;;;;;;;6.80;3.90;;;;;;;12.89;100.00;99027.59;104837;1267;60429;-75
2023/11/12 00:53:32;;;;;;;6.60;3.70;;;;;;;12.85;100.00;99030.59;104825;1270;60155;-77
2023/11/12 00:55:59;;;;;;;5.10;3.90;;;;;;;12.81;100.00;99029.72;104811;1272;72048;-78
2023/11/12 00:58:29;;;;;;;10.50;4.00;;;;;;;12.76;100.00;99030.02;104848;1267;62895;-76
2023/11/12 01:00:56;;;;;;;5.10;3.40;;;;;;;12.71;100.00;99034.00;104606;1272;250922;-76
2023/11/12 01:03:28;;;;;;;5.20;3.10;;;;;;;12.66;100.00;99034.27;104931;1269;61947;-78
2023/11/12 01:05:56;;;;;;;6.50;3.50;;;;;;;12.61;100.00;99034.56;105122;1264;60391;-74
2023/11/12 01:08:23;;;;;;;4.80;3.20;;;;;;;12.57;100.00;99038.70;105060;1264;72279;-74
2023/11/12 01:10:53;;;;;;;9.70;3.10;;;;;;;12.52;100.00;99041.90;105345;1260;62589;-75
2023/11/12 01:13:19;;;;;;;6.70;2.70;;;;;;;12.48;100.00;99040.20;105247;1264;72822;-73
2023/11/12 01:15:47;;;;;;;4.90;2.80;;;;;;;12.43;100.00;99043.59;105275;1263;62099;-75
2023/11/12 01:18:16;;;;;;;5.90;3.10;;;;;;;12.39;100.00;99039.73;105280;1262;60115;-75
2023/11/12 01:20:43;;;;;;;5.50;3.70;;;;;;;12.35;100.00;99035.09;105136;1261;73219;-76
2023/11/12 01:23:10;;;;;;;5.60;3.20;;;;;;;12.31;100.00;99037.27;105349;1262;63905;-76
2023/11/12 01:25:37;;;;;;;8.30;3.40;;;;;;;12.26;100.00;99040.09;105375;1261;72526;-78
2023/11/12 01:28:04;;;;;;;5.20;2.40;;;;;;;12.22;100.00;99041.52;105257;1267;61980;-77
2023/11/12 01:30:31;;;;;;;4.50;2.70;;;;;;;12.19;100.00;99044.30;105363;1263;59637;-78
2023/11/12 01:32:58;;;;;;;3.90;2.80;;;;;;;12.15;100.00;99040.25;105592;1257;73071;-76
2023/11/12 01:35:26;;;;;;;3.70;2.30;;;;;;;12.12;100.00;99041.26;105672;1253;62425;-74
2023/11/12 01:37:53;;;;;;;7.70;3.50;;;;;;;12.09;100.00;99035.77;105628;1257;71521;-76
2023/11/12 01:40:20;;;;;;;4.10;2.50;;;;;;;12.05;100.00;99037.48;105618;1257;59990;-75
2023/11/12 01:42:47;;;;;;;4.30;2.70;;;;;;;12.02;100.00;99042.10;105727;1254;60387;-78
2023/11/12 01:45:14;;;;;;;5.00;2.90;;;;;;;12.00;100.00;99039.86;105672;1259;73092;-76
2023/11/12 01:47:44;;;;;;;4.40;2.50;;;;;;;11.98;100.00;99041.48;105757;1256;63796;-75
2023/11/12 01:50:14;;;;;;;7.40;2.70;;;;;;;11.95;100.00;99046.48;105779;1254;72354;-76
2023/11/12 01:52:42;;;;;;;5.40;2.90;;;;;;;11.91;100.00;99042.10;105818;1256;61953;-77
2023/11/12 01:55:12;;;;;;;3.70;2.10;;;;;;;11.89;100.00;99042.48;105758;1254;60317;-77
2023/11/12 01:57:39;;;;;;;7.10;3.00;;;;;;;11.86;100.00;99044.30;105658;1258;74234;-79
2023/11/12 02:00:10;;;;;;;7.60;3.00;;;;;;;11.84;100.00;99040.25;105761;1257;63709;-77
2023/11/12 02:02:45;;;;;;;6.60;2.60;;;;;;;11.81;100.00;99045.05;105710;1254;72585;-77
2023/11/12 02:07:49;;;;;;;5.10;2.50;;;;;;;11.79;100.00;99044.58;103180;1288;600659;-78
2023/11/12 02:10:17;;;;;;;5.20;2.60;;;;;;;11.73;100.00;99049.80;104827;1269;60446;-77
2023/11/12 02:12:46;;;;;;;4.80;2.60;;;;;;;11.71;100.00;99055.58;104852;1270;59356;-76
2023/11/12 02:15:15;;;;;;;6.00;2.60;;;;;;;11.67;100.00;99062.08;104792;1272;71075;-75
2023/11/12 02:17:45;;;;;;;4.50;2.20;;;;;;;11.63;100.00;99061.75;105666;1254;63357;-79
2023/11/12 02:20:16;;;;;;;5.80;2.40;;;;;;;11.59;100.00;99064.34;105382;1260;71218;-79
2023/11/12 02:22:44;;;;;;;4.50;2.60;;;;;;;11.56;100.00;99064.27;105507;1257;60784;-75
2023/11/12 02:25:13;;;;;;;6.70;2.80;;;;;;;11.53;100.00;99059.30;105689;1257;59403;-77
2023/11/12 02:27:43;;;;;;;4.70;2.40;;;;;;;11.51;100.00;99053.33;105730;1259;72430;-75
2023/11/12 02:30:11;;;;;;;5.00;2.70;;;;;;;11.49;100.00;99050.23;105694;1257;62499;-78
2023/11/12 02:32:40;;;;;;;4.30;2.20;;;;;;;11.46;100.00;99042.43;105847;1256;72457;-75
2023/11/12 02:35:08;;;;;;;7.10;3.20;;;;;;;11.44;100.00;99043.34;105627;1258;61774;-77
2023/11/12 02:37:37;;;;;;;6.80;2.70;;;;;;;11.40;100.00;99040.48;105775;1256;59692;-77
2023/11/12 02:40:07;;;;;;;9.70;2.40;;;;;;;11.38;100.00;99036.50;105759;1258;73096;-76
2023/11/12 02:42:34;;;;;;;7.70;2.70;;;;;;;11.36;100.00;99032.83;105750;1254;62419;-77
2023/11/12 02:45:03;;;;;;;6.80;3.00;;;;;;;11.34;100.00;99025.09;105801;1257;72683;-75
2023/11/12 02:47:32;;;;;;;7.00;2.40;;;;;;;11.34;100.00;99036.31;105778;1253;60614;-75
2023/11/12 02:50:35;;;;;;;15.00;2.80;;;;;;;11.32;100.00;99045.73;105715;1253;60174;-74
2023/11/12 02:53:04;;;;;;;8.00;3.00;;;;;;;11.30;100.00;99048.21;105198;1264;72751;-74
2023/11/12 02:55:33;;;;;;;5.20;3.00;;;;;;;11.29;100.00;99044.84;105197;1261;64101;-75
2023/11/12 02:58:01;;;;;;;7.90;2.90;;;;;;;11.28;100.00;99047.74;105438;1260;72451;-74
2023/11/12 03:00:29;;;;;;;11.20;6.20;;;;;;;11.27;100.00;99053.02;105225;1264;61736;-74
2023/11/12 03:02:58;;;;;;;6.60;3.40;;;;;;;11.26;100.00;99050.30;105125;1266;59557;-77
2023/11/12 03:05:27;;;;;;;6.70;2.60;;;;;;;11.25;100.00;99052.33;105509;1259;73131;-75
2023/11/12 03:07:57;;;;;;;7.40;2.70;;;;;;;11.24;100.00;99050.16;105811;1264;63923;-75
2023/11/12 03:10:26;;;;;;;7.90;2.80;;;;;;;11.24;100.00;99048.45;105170;1261;72768;-77
2023/11/12 03:12:53;;;;;;;8.10;2.70;;;;;;;11.25;100.00;99053.45;105044;1261;61748;-76
2023/11/12 03:15:23;;;;;;;6.20;2.80;;;;;;;11.25;100.00;99048.32;105130;1266;59749;-75
2023/11/12 03:17:52;;;;;;;5.50;2.80;;;;;;;11.27;100.00;99051.08;105148;1260;73963;-76
2023/11/12 03:20:20;;;;;;;5.20;2.70;;;;;;;11.30;100.00;99053.45;105186;1259;62288;-76
2023/11/12 03:22:49;;;;;;;14.90;4.70;;;;;;;11.33;100.00;99049.90;105615;1261;72659;-76
2023/11/12 03:25:16;;;;;;;9.20;3.20;;;;;;;11.34;100.00;99057.80;105373;1264;62031;-76
2023/11/12 03:27:44;;;;;;;7.00;2.80;;;;;;;11.36;100.00;99058.36;105190;1264;59550;-74
2023/11/12 03:30:12;;;;;;;8.20;3.80;;;;;;;11.38;100.00;99062.35;105546;1253;71853;-76
2023/11/12 03:32:41;;;;;;;10.60;3.80;;;;;;;11.41;100.00;99057.90;105799;1254;62429;-77
2023/11/12 03:35:09;;;;;;;8.30;3.40;;;;;;;11.46;100.00;99065.88;105812;1257;72038;-76
2023/11/12 03:37:37;;;;;;;10.50;3.40;;;;;;;11.50;100.00;99064.10;106294;1258;61612;-74
2023/11/12 03:40:07;;;;;;;7.90;3.40;;;;;;;11.53;100.00;99072.12;105990;1257;59502;-73
2023/11/12 03:42:35;;;;;;;8.60;3.40;;;;;;;11.56;100.00;99069.93;105771;1257;73007;-74
2023/11/12 03:45:04;;;;;;;8.70;3.30;;;;;;;11.57;100.00;99072.75;105687;1254;63537;-77
2023/11/12 03:47:32;;;;;;;6.30;4.10;;;;;;;11.58;100.00;99069.73;105721;1256;71263;-74
2023/11/12 03:50:02;;;;;;;6.70;3.10;;;;;;;11.59;100.00;99074.91;105680;1257;60406;-75
2023/11/12 03:52:30;;;;;;;10.60;4.30;;;;;;;11.58;100.00;99081.22;105770;1253;59586;-80
2023/11/12 03:54:58;;;;;;;8.20;3.30;;;;;;;11.58;100.00;99081.45;105651;1257;73034;-74
2023/11/12 03:57:25;;;;;;;8.00;4.30;;;;;;;11.57;100.00;99082.92;105714;1257;63914;-74
2023/11/12 03:59:53;;;;;;;7.60;3.60;;;;;;;11.56;100.00;99074.96;105566;1259;71507;-77
2023/11/12 04:02:21;;;;;;;7.40;4.00;;;;;;;11.55;100.00;99076.42;105710;1254;61793;-77
2023/11/12 04:04:49;;;;;;;7.00;3.70;;;;;;;11.54;100.00;99075.14;105759;1251;60039;-77
2023/11/12 04:07:17;;;;;;;7.50;3.50;;;;;;;11.54;100.00;99074.81;105691;1256;72793;-76
2023/11/12 04:09:45;;;;;;;7.70;3.30;;;;;;;11.53;100.00;99078.36;105786;1251;62405;-76
2023/11/12 04:12:13;;;;;;;9.60;3.80;;;;;;;11.53;100.00;99078.19;105726;1254;71544;-77
2023/11/12 04:14:40;;;;;;;7.10;3.60;;;;;;;11.53;100.00;99085.77;105781;1256;61647;-78
2023/11/12 04:17:08;;;;;;;14.90;4.00;;;;;;;11.52;100.00;99084.10;105797;1253;60045;-77
2023/11/12 04:19:35;;;;;;;7.50;4.20;;;;;;;11.51;100.00;99084.85;105741;1257;73113;-76
2023/11/12 04:22:04;;;;;;;5.30;3.70;;;;;;;11.50;100.00;99080.90;105701;1257;62550;-78
2023/11/12 04:24:31;;;;;;;5.80;3.00;;;;;;;11.48;100.00;99078.79;105790;1251;72725;-76
2023/11/12 04:26:59;;;;;;;11.70;3.80;;;;;;;11.47;100.00;99081.89;105817;1253;60504;-75
2023/11/12 04:29:27;;;;;;;8.30;3.40;;;;;;;11.45;100.00;99078.37;105846;1255;59981;-76
2023/11/12 04:31:54;;;;;;;9.50;3.50;;;;;;;11.42;100.00;99076.70;105676;1251;72059;-75
2023/11/12 04:34:22;;;;;;;6.90;3.30;;;;;;;11.41;100.00;99078.23;105738;1255;63004;-78
2023/11/12 04:36:49;;;;;;;7.80;3.60;;;;;;;11.40;100.00;99075.98;105843;1256;71777;-77
2023/11/12 04:39:18;;;;;;;11.20;3.40;;;;;;;11.41;100.00;99075.58;105743;1252;61675;-76
2023/11/12 04:41:46;;;;;;;10.40;3.20;;;;;;;11.43;100.00;99072.45;105710;1257;59615;-74
2023/11/12 04:44:14;;;;;;;9.20;3.60;;;;;;;11.45;100.00;99076.11;105704;1256;73134;-77
2023/11/12 04:46:42;;;;;;;6.80;3.20;;;;;;;11.47;100.00;99074.73;105868;1251;62441;-74
2023/11/12 04:49:09;;;;;;;8.30;3.10;;;;;;;11.47;100.00;99083.27;105707;1252;71757;-78
2023/11/12 04:51:37;;;;;;;8.80;3.60;;;;;;;11.47;100.00;99084.69;105769;1253;60535;-75
2023/11/12 04:54:05;;;;;;;8.80;3.30;;;;;;;11.49;100.00;99087.17;105878;1251;60584;-76
2023/11/12 04:56:33;;;;;;;13.10;3.30;;;;;;;11.50;100.00;99089.17;105734;1256;73080;-76
2023/11/12 04:59:00;;;;;;;9.90;3.60;;;;;;;11.50;100.00;99094.71;105838;1251;63545;-74
2023/11/12 05:01:28;;;;;;;15.40;3.20;;;;;;;11.51;100.00;99096.79;105803;1255;71471;-75
2023/11/12 05:03:56;;;;;;;6.10;3.10;;;;;;;11.51;100.00;99099.77;105731;1251;63249;-76
2023/11/12 05:06:28;;;;;;;11.40;4.10;;;;;;;11.50;100.00;99102.98;105819;1254;60430;-77
2023/11/12 05:08:56;;;;;;;11.00;3.10;;;;;;;11.50;100.00;99105.77;105634;1251;73164;-74
2023/11/12 05:11:24;;;;;;;10.80;3.20;;;;;;;11.52;100.00;99107.58;105898;1251;62453;-76
2023/11/12 05:13:51;;;;;;;7.70;3.70;;;;;;;11.52;100.00;99107.16;105725;1256;72637;-78
2023/11/12 05:16:19;;;;;;;9.60;3.60;;;;;;;11.52;100.00;99101.58;105746;1256;61905;-74
2023/11/12 05:18:49;;;;;;;7.90;2.50;;;;;;;11.53;100.00;99103.76;105834;1253;60097;-75
2023/11/12 05:21:21;;;;;;;9.30;2.40;;;;;;;11.54;100.00;99101.22;105781;1257;73011;-76
2023/11/12 05:23:49;;;;;;;8.20;3.20;;;;;;;11.54;100.00;99102.23;105862;1256;62635;-77
2023/11/12 05:26:18;;;;;;;5.70;2.60;;;;;;;11.55;100.00;99101.86;105870;1257;71433;-76
2023/11/12 05:28:45;;;;;;;7.00;2.40;;;;;;;11.55;100.00;99104.76;105961;1251;61730;-76
2023/11/12 05:31:13;;;;;;;9.10;2.50;;;;;;;11.57;100.00;99103.92;106052;1256;60081;-76
2023/11/12 05:33:41;;;;;;;7.30;2.60;;;;;;;11.59;100.00;99104.48;106307;1251;72492;-76
2023/11/12 05:36:14;;;;;;;11.20;3.00;;;;;;;11.60;100.00;99104.33;106462;1251;63665;-76
2023/11/12 05:38:53;;;;;;;6.60;3.30;;;;;;;11.63;100.00;99102.17;106060;1256;72731;-74
2023/11/12 05:41:23;;;;;;;6.80;2.30;;;;;;;11.67;100.00;99107.98;106304;1251;60106;-77
2023/11/12 05:43:51;;;;;;;5.50;2.80;;;;;;;11.69;100.00;99108.48;106307;1251;60740;-77
2023/11/12 05:46:19;;;;;;;9.80;2.80;;;;;;;11.71;100.00;99107.96;105991;1251;73099;-76
2023/11/12 05:48:47;;;;;;;8.50;2.90;;;;;;;11.75;100.00;99111.23;105975;1257;63209;-75
2023/11/12 05:51:15;;;;;;;8.60;2.50;;;;;;;11.82;100.00;99107.52;106436;1253;72900;-77
2023/11/12 05:53:42;;;;;;;7.10;2.50;;;;;;;11.88;100.00;99109.29;106927;1255;60672;-76
2023/11/12 05:56:10;;;;;;;7.10;2.80;;;;;;;11.92;100.00;99109.44;106261;1256;59497;-76
2023/11/12 05:58:38;;;;;;;7.80;2.60;;;;;;;11.94;100.00;99105.21;105886;1251;71892;-75
2023/11/12 06:01:06;;;;;;;5.20;2.70;;;;;;;11.96;100.00;99111.13;105889;1253;63286;-75
2023/11/12 06:03:33;;;;;;;8.50;2.70;;;;;;;11.98;100.00;99109.96;105799;1255;72547;-78
2023/11/12 06:06:01;;;;;;;6.40;2.70;;;;;;;11.99;100.00;99105.79;105822;1255;60735;-76
2023/11/12 06:08:29;;;;;;;7.50;3.10;;;;;;;12.02;100.00;99112.54;105837;1251;60031;-76
2023/11/12 06:10:56;;;;;;;11.20;4.80;;;;;;;12.06;100.00;99117.52;105812;1257;72093;-76
2023/11/12 06:13:24;;;;;;;11.30;4.00;;;;;;;12.10;100.00;99133.05;105879;1256;62682;-78
2023/11/12 06:15:55;;;;;;;10.70;3.20;;;;;;;12.13;100.00;99133.12;105833;1252;72766;-77
2023/11/12 06:18:23;;;;;;;7.90;3.10;;;;;;;12.16;100.00;99132.14;105769;1252;61598;-77
2023/11/12 06:20:51;;;;;;;5.50;2.60;;;;;;;12.19;100.00;99130.13;105796;1251;60422;-78
2023/11/12 06:23:18;;;;;;;4.80;2.40;;;;;;;12.21;100.00;99133.91;105844;1251;73842;-76
2023/11/12 06:25:46;;;;;;;8.60;2.70;;;;;;;12.23;100.00;99123.13;106116;1251;65906;-77
2023/11/12 06:28:16;;;;;;;6.30;2.70;;;;;;;12.23;100.00;99127.48;106094;1251;72726;-77
2023/11/12 06:30:44;;;;;;;6.90;1.90;;;;;;;12.23;100.00;99136.95;105816;1253;60415;-76
2023/11/12 06:33:11;;;;;;;3.40;2.10;;;;;;;12.23;100.00;99147.94;105849;1253;60505;-76
2023/11/12 06:35:47;;;;;;;5.50;1.90;;;;;;;12.24;100.00;99150.13;105912;1251;73820;-74
2023/11/12 06:38:22;;;;;;;5.70;3.00;;;;;;;12.25;100.00;99154.09;106230;1251;63036;-75
2023/11/12 06:40:52;;;;;;;7.60;2.10;;;;;;;12.26;100.00;99149.30;105981;1257;71583;-79
2023/11/12 06:43:20;;;;;;;7.70;2.30;;;;;;;12.27;100.00;99150.76;105846;1251;61969;-75
2023/11/12 06:45:47;;;;;;;5.20;1.50;;;;;;;12.29;100.00;99150.42;105905;1251;60718;-75
2023/11/12 06:48:17;;;;;;;5.50;1.50;;;;;;;12.30;100.00;99158.02;105817;1251;72787;-77
2023/11/12 06:50:44;;;;;;;6.10;1.60;;;;;;;12.32;100.00;99148.77;105809;1252;63559;-75
2023/11/12 06:53:12;;;;;;;7.20;2.00;;;;;;;12.34;100.00;99151.56;106458;1255;74429;-76
2023/11/12 06:55:40;;;;;;;5.20;1.90;;;;;;;12.36;100.00;99157.99;105828;1253;60542;-76
2023/11/12 06:58:07;;;;;;;8.50;1.60;;;;;;;12.40;100.00;99159.20;105797;1251;60734;-76
2023/11/12 07:00:35;;;;;;;7.30;1.60;;;;;;;12.47;100.00;99159.85;105730;1251;73971;-77
2023/11/12 07:03:03;;;;;;;4.30;1.40;;;;;;;12.56;100.00;99157.92;105827;1255;63555;-77
2023/11/12 07:05:32;;;;;;;2.90;1.40;;;;;;;12.66;100.00;99160.50;105913;1253;71387;-79
2023/11/12 07:08:00;;;;;;;7.80;2.70;;;;;;;12.77;100.00;99151.23;105857;1253;60773;-79
2023/11/12 07:10:28;;;;;;;8.60;2.50;;;;;;;12.89;100.00;99150.55;105832;1255;60444;-75
2023/11/12 07:12:57;;;;;;;4.80;1.20;;;;;;;12.98;100.00;99154.06;105880;1251;72699;-76
2023/11/12 07:15:25;;;;;;;6.80;1.60;;;;;;;13.03;100.00;99147.79;105892;1255;64194;-78
2023/11/12 07:17:53;;;;;;;7.30;2.00;;;;;;;13.07;100.00;99141.98;105780;1253;71384;-76
2023/11/12 07:20:21;;;;;;;4.80;1.30;;;;;;;13.08;100.00;99135.61;105850;1251;60741;-75
2023/11/12 07:22:49;;;;;;;4.50;1.20;;;;;;;13.08;100.00;99138.57;105863;1255;60391;-75
2023/11/12 07:25:17;;;;;;;4.10;1.40;;;;;;;13.06;100.00;99132.75;105842;1254;73819;-77
2023/11/12 07:27:45;;;;;;;5.50;1.10;;;;;;;13.05;100.00;99128.33;105795;1251;62468;-75
2023/11/12 07:30:13;;;;;;;7.20;1.40;;;;;;;13.02;100.00;99136.98;105497;1260;72443;-75
2023/11/12 07:32:40;;;;;;;4.50;1.20;;;;;;;13.00;100.00;99138.73;105760;1255;60506;-77
2023/11/12 07:35:09;;;;;;;6.90;1.70;;;;;;;13.02;100.00;99147.67;105702;1251;60358;-77
2023/11/12 07:37:37;;;;;;;3.50;1.00;;;;;;;13.06;100.00;99138.41;105804;1251;72650;-75
2023/11/12 07:40:10;;;;;;;7.10;1.70;;;;;;;13.13;100.00;99139.83;105799;1251;62301;-75
2023/11/12 07:42:42;;;;;;;7.80;1.60;;;;;;;13.19;100.00;99139.10;105897;1256;71945;-76
2023/11/12 07:45:10;;;;;;;7.90;1.80;;;;;;;13.25;100.00;99151.86;105807;1255;60544;-74
2023/11/12 07:47:42;;;;;;;9.20;1.90;;;;;;;13.29;100.00;99141.70;105859;1251;60499;-77
2023/11/12 07:50:10;;;;;;;6.50;1.60;;;;;;;13.31;100.00;99147.86;105782;1253;72710;-79
2023/11/12 07:52:37;;;;;;;5.70;1.40;;;;;;;13.32;100.00;99142.84;105835;1251;63562;-76
2023/11/12 07:55:05;;;;;;;8.90;1.80;;;;;;;13.34;100.00;99141.91;105777;1257;73953;-77
2023/11/12 07:57:33;;;;;;;8.60;1.70;;;;;;;13.37;100.00;99145.58;105837;1251;60430;-77
2023/11/12 08:00:01;;;;;;;4.80;1.20;;;;;;;13.37;100.00;99146.06;105885;1251;60332;-75
2023/11/12 08:02:39;;;;;;;9.20;1.50;;;;;;;13.33;100.00;99148.20;105754;1255;72141;-75
2023/11/12 08:05:08;;;;;;;7.00;1.60;;;;;;;13.28;100.00;99150.23;105752;1253;62455;-76
2023/11/12 08:07:36;;;;;;;7.30;2.20;;;;;;;13.21;100.00;99143.11;105809;1251;72584;-76
2023/11/12 08:10:05;;;;;;;4.50;1.30;;;;;;;13.15;100.00;99150.34;105662;1256;63571;-78
2023/11/12 08:12:33;;;;;;;7.50;1.60;;;;;;;13.11;100.00;99146.87;105781;1256;60532;-78
2023/11/12 08:15:05;;;;;;;6.60;1.60;;;;;;;13.08;100.00;99149.45;105770;1253;74389;-77
2023/11/12 08:17:33;;;;;;;4.60;1.90;;;;;;;13.08;100.00;99153.28;105822;1252;63600;-79
2023/11/12 08:20:01;;;;;;;7.40;1.60;;;;;;;13.11;100.00;99145.82;105782;1256;72631;-78
2023/11/12 08:22:28;;;;;;;12.30;2.00;;;;;;;13.14;100.00;99147.29;105777;1256;62462;-78
2023/11/12 08:24:56;;;;;;;4.90;1.20;;;;;;;13.16;100.00;99139.61;105845;1251;60438;-79
2023/11/12 08:27:25;;;;;;;3.00;1.00;;;;;;;13.15;100.00;99146.65;105905;1255;76130;-76
2023/11/12 08:29:58;;;;;;;8.70;1.90;;;;;;;13.16;100.00;99146.19;106140;1251;63823;-76
2023/11/12 08:32:30;;;;;;;2.80;1.00;;;;;;;13.18;100.00;99147.98;105850;1251;75680;-77
2023/11/12 08:34:59;;;;;;;10.50;2.30;;;;;;;13.21;100.00;99143.61;105944;1254;63072;-77
2023/11/12 08:37:31;;;;;;;4.80;1.30;;;;;;;13.24;100.00;99137.95;105936;1251;60493;-76
2023/11/12 08:40:02;;;;;;;5.90;1.40;;;;;;;13.25;100.00;99134.11;106655;1251;72772;-78
2023/11/12 08:42:33;;;;;;;5.60;1.50;;;;;;;13.29;100.00;99123.67;106638;1255;62421;-80
2023/11/12 08:45:26;;;;;;;4.90;1.20;;;;;;;13.33;100.00;99116.95;106028;1251;74829;-79
2023/11/12 08:48:04;;;;;;;8.10;1.60;;;;;;;13.38;100.00;99114.71;106126;1256;62009;-76
2023/11/12 08:50:39;;;;;;;8.20;1.70;;;;;;;13.41;100.00;99113.89;105921;1251;60346;-76
2023/11/12 08:53:12;;;;;;;5.40;1.50;;;;;;;13.42;100.00;99116.07;105833;1251;73797;-75
2023/11/12 08:56:52;;;;;;;6.10;1.30;;;;;;;13.40;100.00;99112.92;105804;1255;62305;-79
2023/11/12 08:59:11;;;;;;;4.70;1.80;;;;;;;13.39;100.00;99108.50;105651;1254;72713;-76
2023/11/12 09:01:49;;;;;;;3.00;1.00;;;;;;;13.36;100.00;99110.48;105834;1251;62249;-76
2023/11/12 09:04:20;;;;;;;6.50;1.30;;;;;;;13.36;100.00;99101.61;105861;1252;60543;-76
2023/11/12 09:06:48;;;;;;;7.10;1.30;;;;;;;13.33;100.00;99108.20;105825;1251;74396;-77
2023/11/12 09:09:17;;;;;;;8.50;1.50;;;;;;;13.33;100.00;99103.98;105869;1252;63050;-75
2023/11/12 09:11:45;;;;;;;6.70;0.80;;;;;;;13.39;100.00;99101.98;105848;1251;73624;-75
2023/11/12 09:14:15;;;;;;;3.90;1.10;;;;;;;13.45;100.00;99100.50;105821;1251;63806;-76
2023/11/12 09:16:46;;;;;;;8.10;1.40;;;;;;;13.51;100.00;99104.49;105764;1255;60359;-78
2023/11/12 09:19:17;;;;;;;8.30;1.70;;;;;;;13.58;100.00;99112.07;105870;1253;73833;-78
2023/11/12 09:21:50;;;;;;;3.40;1.10;;;;;;;13.64;100.00;99110.91;105909;1255;63558;-77
2023/11/12 09:24:21;;;;;;;5.40;1.00;;;;;;;13.68;100.00;99101.30;105863;1251;73160;-77
2023/11/12 09:26:53;;;;;;;5.70;1.00;;;;;;;13.69;100.00;99100.52;105693;1257;62872;-78
2023/11/12 09:29:21;;;;;;;2.40;0.80;;;;;;;13.66;100.00;99104.63;105717;1251;60495;-76
2023/11/12 09:31:48;;;;;;;5.30;1.10;;;;;;;13.61;100.00;99112.16;105756;1251;72459;-76
2023/11/12 09:34:16;;;;;;;6.80;1.00;;;;;;;13.57;100.00;99114.45;105928;1256;62776;-77
2023/11/12 09:36:45;;;;;;;2.40;1.10;;;;;;;13.52;100.00;99114.90;105767;1252;71055;-77
2023/11/12 09:39:16;;;;;;;4.90;0.80;;;;;;;13.46;100.00;99108.75;105874;1253;61795;-76
2023/11/12 09:41:50;;;;;;;6.50;1.40;;;;;;;13.42;100.00;99109.06;105815;1251;60496;-76
2023/11/12 09:44:18;;;;;;;11.60;2.90;;;;;;;13.37;100.00;99113.36;105692;1251;74177;-77
2023/11/12 09:47:02;;;;;;;7.40;1.80;;;;;;;13.35;100.00;99119.38;105592;1260;62808;-76
2023/11/12 09:49:48;;;;;;;9.80;2.70;;;;;;;13.37;100.00;99107.06;105801;1256;72098;-78
2023/11/12 09:52:26;;;;;;;7.40;1.60;;;;;;;13.41;100.00;99107.40;105838;1257;61684;-78
2023/11/12 09:54:54;;;;;;;2.60;0.80;;;;;;;13.42;100.00;99100.99;105883;1252;60451;-75
2023/11/12 09:57:21;;;;;;;5.40;0.90;;;;;;;13.57;100.00;99105.12;106095;1255;73877;-75
2023/11/12 09:59:49;;;;;;;6.50;1.20;;;;;;;13.75;100.00;99101.80;105909;1253;62361;-75
2023/11/12 10:02:17;;;;;;;6.20;1.10;;;;;;;13.80;100.00;99101.55;105823;1256;71912;-76
2023/11/12 10:04:48;;;;;;;5.40;1.30;;;;;;;13.75;100.00;99098.68;105872;1257;60544;-77
2023/11/12 10:07:18;;;;;;;5.20;1.90;;;;;;;13.68;100.00;99095.09;105774;1258;61123;-78
2023/11/12 10:09:46;;;;;;;5.70;1.30;;;;;;;13.63;100.00;99098.45;105745;1256;73313;-79
2023/11/12 14:24:43;;;;;;;2.40;2.20;;;;;;;8.46;100.00;99352.27;103101;1294;600830;-80
2023/11/12 14:27:11;;;;;;;3.40;3.10;;;;;;;8.41;100.00;99349.63;104760;1272;59426;-80
2023/11/12 14:29:39;;;;;;;3.20;2.80;;;;;;;8.40;100.00;99358.05;104903;1265;60520;-79
2023/11/12 14:32:07;;;;;;;7.20;3.90;;;;;;;8.39;100.00;99356.20;104930;1271;72268;-80
2023/11/12 14:34:34;;;;;;;5.60;4.90;;;;;;;8.37;100.00;99366.42;104923;1270;63174;-82
2023/11/12 14:37:03;;;;;;;5.50;5.00;;;;;;;8.35;100.00;99371.99;104995;1267;72093;-82
2023/11/12 14:39:31;;;;;;;4.80;4.20;;;;;;;8.32;100.00;99375.32;105031;1269;196574;-81
2023/11/12 14:41:59;;;;;;;6.00;4.60;;;;;;;8.29;100.00;99377.41;105093;1269;59408;-80
2023/11/12 14:44:27;;;;;;;6.50;5.40;;;;;;;8.28;100.00;99382.86;105177;1267;72932;-81
2023/11/12 14:46:55;;;;;;;7.00;5.10;;;;;;;8.28;100.00;99383.95;105106;1263;66439;-81
2023/11/12 14:49:23;;;;;;;9.90;6.00;;;;;;;8.26;100.00;99390.55;105286;1266;73165;-79
2023/11/12 14:51:53;;;;;;;6.50;5.50;;;;;;;8.25;100.00;99394.27;105299;1265;60949;-78
2023/11/12 14:54:20;;;;;;;7.00;6.20;;;;;;;8.24;100.00;99402.84;105596;1257;59618;-80
2023/11/12 14:56:52;;;;;;;7.20;6.50;;;;;;;8.23;100.00;99414.45;105539;1260;73031;-77
2023/11/12 14:59:20;;;;;;;8.50;6.10;;;;;;;8.22;100.00;99421.11;105640;1262;64823;-79
2023/11/12 15:01:47;;;;;;;9.30;7.50;;;;;;;8.22;100.00;99427.23;105815;1266;72543;-80
2023/11/12 15:04:15;;;;;;;8.00;7.10;;;;;;;8.20;100.00;99426.61;105767;1251;59625;-80
2023/11/12 15:06:44;;;;;;;8.10;6.20;;;;;;;8.19;100.00;99437.65;106089;1251;59909;-79
2023/11/12 15:09:11;;;;;;;11.50;8.50;;;;;;;8.18;100.00;99436.34;105930;1257;72651;-79
2023/11/12 15:11:40;;;;;;;10.60;8.00;;;;;;;8.17;100.00;99442.52;105845;1251;64713;-82
2023/11/12 15:14:08;;;;;;;10.00;8.00;;;;;;;8.17;100.00;99450.73;105753;1254;73758;-81
2023/11/12 15:16:37;;;;;;;12.70;8.40;;;;;;;8.16;100.00;99455.64;105916;1257;62809;-79
2023/11/12 15:19:06;;;;;;;11.20;7.80;;;;;;;8.15;100.00;99457.65;105910;1257;61932;-79
2023/11/12 15:21:42;;;;;;;11.50;8.00;;;;;;;8.13;100.00;99462.85;105847;1257;72810;-81
2023/11/12 15:24:16;;;;;;;8.60;7.50;;;;;;;8.10;100.00;99469.75;105873;1251;63774;-79
2023/11/12 15:26:45;;;;;;;9.70;7.90;;;;;;;8.09;100.00;99470.39;105773;1251;72591;-81
2023/11/12 15:29:12;;;;;;;10.90;8.70;;;;;;;8.08;100.00;99477.95;105844;1257;59777;-79
2023/11/12 15:31:42;;;;;;;9.50;8.00;;;;;;;8.07;100.00;99478.49;105778;1260;59692;-78
2023/11/12 15:34:09;;;;;;;10.80;8.60;;;;;;;8.09;100.00;99488.67;105850;1251;74092;-80
2023/11/12 15:36:38;;;;;;;9.20;7.40;;;;;;;8.09;100.00;99489.02;105863;1251;62961;-78
2023/11/12 15:39:08;;;;;;;10.50;8.60;;;;;;;8.10;100.00;99499.92;105749;1257;71794;-81
2023/11/12 15:41:39;;;;;;;9.30;8.20;;;;;;;8.10;100.00;99507.73;105836;1256;60260;-81